sensor_id;sensor_type;location;lat;lon;timestamp;P1;durP1;ratioP1;P2;durP2;ratioP2
21769;SDS011;11046;49.558;8.674;2023-07-30T00:01:07;5.07;;;3.42;;
21769;SDS011;11046;49.558;8.674;2023-07-30T00:04:07;4.45;;;3.50;;
21769;SDS011;11046;49.558;8.674;2023-07-30T00:07:08;9.85;;;3.60;;
21769;SDS011;11046;49.558;8.674;2023-07-30T00:10:08;8.18;;;3.35;;
21769;SDS011;11046;49.558;8.674;2023-07-30T00:13:09;5.28;;;3.63;;
21769;SDS011;11046;49.558;8.674;2023-07-30T00:16:10;4.10;;;3.42;;
21769;SDS011;11046;49.558;8.674;2023-07-30T00:19:10;6.05;;;2.80;;
21769;SDS011;11046;49.558;8.674;2023-07-30T00:22:11;6.55;;;2.58;;
21769;SDS011;11046;49.558;8.674;2023-07-30T00:25:12;6.45;;;3.00;;
21769;SDS011;11046;49.558;8.674;2023-07-30T00:28:12;3.80;;;2.60;;
21769;SDS011;11046;49.558;8.674;2023-07-30T00:31:13;3.10;;;2.20;;
21769;SDS011;11046;49.558;8.674;2023-07-30T00:34:13;7.57;;;2.75;;
21769;SDS011;11046;49.558;8.674;2023-07-30T00:37:14;4.70;;;2.60;;
21769;SDS011;11046;49.558;8.674;2023-07-30T00:40:14;12.10;;;2.40;;
21769;SDS011;11046;49.558;8.674;2023-07-30T00:43:15;3.30;;;2.40;;
21769;SDS011;11046;49.558;8.674;2023-07-30T00:46:16;4.78;;;2.50;;
21769;SDS011;11046;49.558;8.674;2023-07-30T00:49:17;4.18;;;2.92;;
21769;SDS011;11046;49.558;8.674;2023-07-30T00:52:18;4.90;;;3.17;;
21769;SDS011;11046;49.558;8.674;2023-07-30T00:55:20;4.40;;;3.10;;
21769;SDS011;11046;49.558;8.674;2023-07-30T00:58:21;4.65;;;3.30;;
21769;SDS011;11046;49.558;8.674;2023-07-30T01:01:21;5.97;;;3.70;;
21769;SDS011;11046;49.558;8.674;2023-07-30T01:04:22;7.03;;;4.10;;
21769;SDS011;11046;49.558;8.674;2023-07-30T01:07:23;5.10;;;4.20;;
21769;SDS011;11046;49.558;8.674;2023-07-30T01:10:24;6.25;;;4.50;;
21769;SDS011;11046;49.558;8.674;2023-07-30T01:13:26;5.85;;;4.60;;
21769;SDS011;11046;49.558;8.674;2023-07-30T01:16:28;7.65;;;4.47;;
21769;SDS011;11046;49.558;8.674;2023-07-30T01:19:29;7.97;;;4.30;;
21769;SDS011;11046;49.558;8.674;2023-07-30T01:22:30;7.90;;;3.97;;
21769;SDS011;11046;49.558;8.674;2023-07-30T01:25:31;6.70;;;4.05;;
21769;SDS011;11046;49.558;8.674;2023-07-30T01:28:43;8.95;;;4.43;;
21769;SDS011;11046;49.558;8.674;2023-07-30T01:31:50;7.28;;;3.92;;
21769;SDS011;11046;49.558;8.674;2023-07-30T01:34:56;7.45;;;4.10;;
21769;SDS011;11046;49.558;8.674;2023-07-30T01:37:57;5.85;;;4.18;;
21769;SDS011;11046;49.558;8.674;2023-07-30T01:40:59;5.40;;;4.10;;
21769;SDS011;11046;49.558;8.674;2023-07-30T01:43:59;5.07;;;3.95;;
21769;SDS011;11046;49.558;8.674;2023-07-30T01:47:00;6.93;;;4.18;;
21769;SDS011;11046;49.558;8.674;2023-07-30T01:50:00;6.38;;;3.83;;
21769;SDS011;11046;49.558;8.674;2023-07-30T01:53:01;4.90;;;3.88;;
21769;SDS011;11046;49.558;8.674;2023-07-30T01:56:02;7.75;;;3.72;;
21769;SDS011;11046;49.558;8.674;2023-07-30T01:59:03;6.72;;;3.88;;
21769;SDS011;11046;49.558;8.674;2023-07-30T02:02:03;5.10;;;3.58;;
21769;SDS011;11046;49.558;8.674;2023-07-30T02:05:04;5.32;;;3.78;;
21769;SDS011;11046;49.558;8.674;2023-07-30T02:08:05;7.00;;;4.05;;
21769;SDS011;11046;49.558;8.674;2023-07-30T02:11:05;5.72;;;3.70;;
21769;SDS011;11046;49.558;8.674;2023-07-30T02:14:06;5.47;;;3.92;;
21769;SDS011;11046;49.558;8.674;2023-07-30T02:17:07;7.35;;;3.80;;
21769;SDS011;11046;49.558;8.674;2023-07-30T02:20:07;6.30;;;3.90;;
21769;SDS011;11046;49.558;8.674;2023-07-30T02:23:08;7.07;;;4.15;;
21769;SDS011;11046;49.558;8.674;2023-07-30T02:26:09;7.93;;;4.10;;
21769;SDS011;11046;49.558;8.674;2023-07-30T02:29:10;5.47;;;4.07;;
21769;SDS011;11046;49.558;8.674;2023-07-30T02:32:10;10.40;;;4.10;;
21769;SDS011;11046;49.558;8.674;2023-07-30T02:35:11;5.47;;;4.03;;
21769;SDS011;11046;49.558;8.674;2023-07-30T02:38:12;15.00;;;5.20;;
21769;SDS011;11046;49.558;8.674;2023-07-30T02:41:13;5.88;;;4.35;;
21769;SDS011;11046;49.558;8.674;2023-07-30T02:44:14;8.32;;;4.20;;
21769;SDS011;11046;49.558;8.674;2023-07-30T02:47:14;8.05;;;4.55;;
21769;SDS011;11046;49.558;8.674;2023-07-30T02:50:15;5.97;;;4.30;;
21769;SDS011;11046;49.558;8.674;2023-07-30T02:53:16;7.10;;;4.47;;
21769;SDS011;11046;49.558;8.674;2023-07-30T02:56:16;10.05;;;5.28;;
21769;SDS011;11046;49.558;8.674;2023-07-30T02:59:17;8.93;;;4.90;;
21769;SDS011;11046;49.558;8.674;2023-07-30T03:02:17;6.05;;;4.32;;
21769;SDS011;11046;49.558;8.674;2023-07-30T03:05:18;6.43;;;3.85;;
21769;SDS011;11046;49.558;8.674;2023-07-30T03:08:19;6.35;;;4.28;;
21769;SDS011;11046;49.558;8.674;2023-07-30T03:11:19;6.05;;;4.20;;
21769;SDS011;11046;49.558;8.674;2023-07-30T03:14:22;7.72;;;4.10;;
21769;SDS011;11046;49.558;8.674;2023-07-30T03:17:22;6.57;;;4.10;;
21769;SDS011;11046;49.558;8.674;2023-07-30T03:20:23;7.68;;;3.95;;
21769;SDS011;11046;49.558;8.674;2023-07-30T03:23:24;7.53;;;3.83;;
21769;SDS011;11046;49.558;8.674;2023-07-30T03:26:24;4.75;;;4.00;;
21769;SDS011;11046;49.558;8.674;2023-07-30T03:29:25;11.63;;;3.78;;
21769;SDS011;11046;49.558;8.674;2023-07-30T03:32:25;5.82;;;4.15;;
21769;SDS011;11046;49.558;8.674;2023-07-30T03:35:26;7.65;;;4.05;;
21769;SDS011;11046;49.558;8.674;2023-07-30T03:38:26;7.43;;;3.80;;
21769;SDS011;11046;49.558;8.674;2023-07-30T03:41:28;6.22;;;3.90;;
21769;SDS011;11046;49.558;8.674;2023-07-30T03:44:28;11.52;;;4.15;;
21769;SDS011;11046;49.558;8.674;2023-07-30T03:47:29;5.80;;;4.07;;
21769;SDS011;11046;49.558;8.674;2023-07-30T03:50:29;5.85;;;3.55;;
21769;SDS011;11046;49.558;8.674;2023-07-30T03:53:30;8.75;;;3.92;;
21769;SDS011;11046;49.558;8.674;2023-07-30T03:56:31;12.57;;;3.55;;
21769;SDS011;11046;49.558;8.674;2023-07-30T03:59:31;8.02;;;3.75;;
21769;SDS011;11046;49.558;8.674;2023-07-30T04:02:32;9.63;;;3.75;;
21769;SDS011;11046;49.558;8.674;2023-07-30T04:05:32;9.02;;;4.70;;
21769;SDS011;11046;49.558;8.674;2023-07-30T04:08:34;6.30;;;4.40;;
21769;SDS011;11046;49.558;8.674;2023-07-30T04:11:34;10.57;;;4.57;;
21769;SDS011;11046;49.558;8.674;2023-07-30T04:14:35;6.72;;;4.72;;
21769;SDS011;11046;49.558;8.674;2023-07-30T04:17:36;6.00;;;4.68;;
21769;SDS011;11046;49.558;8.674;2023-07-30T04:20:38;8.43;;;4.10;;
21769;SDS011;11046;49.558;8.674;2023-07-30T04:23:39;8.55;;;4.75;;
21769;SDS011;11046;49.558;8.674;2023-07-30T04:26:39;6.28;;;4.18;;
21769;SDS011;11046;49.558;8.674;2023-07-30T04:29:40;8.88;;;5.10;;
21769;SDS011;11046;49.558;8.674;2023-07-30T04:32:41;10.25;;;5.18;;
21769;SDS011;11046;49.558;8.674;2023-07-30T04:35:41;6.70;;;4.50;;
21769;SDS011;11046;49.558;8.674;2023-07-30T04:38:42;8.07;;;4.80;;
21769;SDS011;11046;49.558;8.674;2023-07-30T04:41:43;6.47;;;4.50;;
21769;SDS011;11046;49.558;8.674;2023-07-30T04:44:44;6.50;;;4.50;;
21769;SDS011;11046;49.558;8.674;2023-07-30T04:47:48;6.70;;;4.70;;
21769;SDS011;11046;49.558;8.674;2023-07-30T04:50:49;7.50;;;4.60;;
21769;SDS011;11046;49.558;8.674;2023-07-30T04:53:49;4.65;;;3.75;;
21769;SDS011;11046;49.558;8.674;2023-07-30T04:56:50;5.10;;;4.15;;
21769;SDS011;11046;49.558;8.674;2023-07-30T04:59:50;5.72;;;4.00;;
21769;SDS011;11046;49.558;8.674;2023-07-30T05:02:51;7.72;;;4.30;;
21769;SDS011;11046;49.558;8.674;2023-07-30T05:05:53;6.97;;;3.80;;
21769;SDS011;11046;49.558;8.674;2023-07-30T05:08:53;4.40;;;3.58;;
21769;SDS011;11046;49.558;8.674;2023-07-30T05:11:54;4.75;;;3.83;;
21769;SDS011;11046;49.558;8.674;2023-07-30T05:14:55;5.80;;;3.53;;
21769;SDS011;11046;49.558;8.674;2023-07-30T05:17:55;4.85;;;3.70;;
21769;SDS011;11046;49.558;8.674;2023-07-30T05:20:56;5.28;;;3.70;;
21769;SDS011;11046;49.558;8.674;2023-07-30T05:23:56;6.68;;;3.80;;
21769;SDS011;11046;49.558;8.674;2023-07-30T05:26:57;3.85;;;3.40;;
21769;SDS011;11046;49.558;8.674;2023-07-30T05:29:57;8.10;;;3.53;;
21769;SDS011;11046;49.558;8.674;2023-07-30T05:32:58;4.15;;;3.22;;
21769;SDS011;11046;49.558;8.674;2023-07-30T05:35:59;5.50;;;3.38;;
21769;SDS011;11046;49.558;8.674;2023-07-30T05:38:59;5.93;;;3.08;;
21769;SDS011;11046;49.558;8.674;2023-07-30T05:42:00;4.65;;;3.10;;
21769;SDS011;11046;49.558;8.674;2023-07-30T05:45:00;3.90;;;2.95;;
21769;SDS011;11046;49.558;8.674;2023-07-30T05:48:01;3.50;;;3.08;;
21769;SDS011;11046;49.558;8.674;2023-07-30T05:51:02;6.32;;;3.00;;
21769;SDS011;11046;49.558;8.674;2023-07-30T05:54:02;5.53;;;2.80;;
21769;SDS011;11046;49.558;8.674;2023-07-30T05:57:03;3.38;;;2.38;;
21769;SDS011;11046;49.558;8.674;2023-07-30T06:00:04;7.65;;;2.85;;
21769;SDS011;11046;49.558;8.674;2023-07-30T06:03:12;6.72;;;2.95;;
21769;SDS011;11046;49.558;8.674;2023-07-30T06:06:12;4.72;;;2.60;;
21769;SDS011;11046;49.558;8.674;2023-07-30T06:09:13;2.90;;;2.60;;
21769;SDS011;11046;49.558;8.674;2023-07-30T06:12:13;4.40;;;2.50;;
21769;SDS011;11046;49.558;8.674;2023-07-30T06:15:14;2.63;;;2.35;;
21769;SDS011;11046;49.558;8.674;2023-07-30T06:18:15;4.47;;;3.03;;
21769;SDS011;11046;49.558;8.674;2023-07-30T06:21:15;3.63;;;2.20;;
21769;SDS011;11046;49.558;8.674;2023-07-30T06:24:16;3.30;;;2.20;;
21769;SDS011;11046;49.558;8.674;2023-07-30T06:27:16;2.95;;;2.60;;
21769;SDS011;11046;49.558;8.674;2023-07-30T06:30:17;2.90;;;2.40;;
21769;SDS011;11046;49.558;8.674;2023-07-30T06:33:17;4.97;;;2.40;;
21769;SDS011;11046;49.558;8.674;2023-07-30T06:36:18;2.45;;;2.05;;
21769;SDS011;11046;49.558;8.674;2023-07-30T06:39:19;4.45;;;2.30;;
21769;SDS011;11046;49.558;8.674;2023-07-30T06:42:19;2.78;;;2.22;;
21769;SDS011;11046;49.558;8.674;2023-07-30T06:45:20;3.85;;;2.67;;
21769;SDS011;11046;49.558;8.674;2023-07-30T06:48:20;3.55;;;2.45;;
21769;SDS011;11046;49.558;8.674;2023-07-30T06:51:32;5.30;;;2.67;;
21769;SDS011;11046;49.558;8.674;2023-07-30T06:54:58;4.65;;;2.50;;
21769;SDS011;11046;49.558;8.674;2023-07-30T06:58:11;4.10;;;2.50;;
21769;SDS011;11046;49.558;8.674;2023-07-30T07:01:17;3.35;;;2.75;;
21769;SDS011;11046;49.558;8.674;2023-07-30T07:04:30;5.78;;;2.97;;
21769;SDS011;11046;49.558;8.674;2023-07-30T07:07:31;5.18;;;3.67;;
21769;SDS011;11046;49.558;8.674;2023-07-30T07:10:50;5.40;;;3.75;;
21769;SDS011;11046;49.558;8.674;2023-07-30T07:14:01;6.45;;;4.00;;
21769;SDS011;11046;49.558;8.674;2023-07-30T07:17:13;7.03;;;4.38;;
21769;SDS011;11046;49.558;8.674;2023-07-30T07:20:27;6.28;;;4.80;;
21769;SDS011;11046;49.558;8.674;2023-07-30T07:23:30;6.53;;;4.80;;
21769;SDS011;11046;49.558;8.674;2023-07-30T07:26:38;6.50;;;4.82;;
21769;SDS011;11046;49.558;8.674;2023-07-30T07:29:39;8.88;;;4.63;;
21769;SDS011;11046;49.558;8.674;2023-07-30T07:32:39;6.40;;;4.53;;
21769;SDS011;11046;49.558;8.674;2023-07-30T07:35:40;5.40;;;4.20;;
21769;SDS011;11046;49.558;8.674;2023-07-30T07:38:41;7.30;;;3.80;;
21769;SDS011;11046;49.558;8.674;2023-07-30T07:41:42;6.00;;;5.10;;
21769;SDS011;11046;49.558;8.674;2023-07-30T07:44:42;6.97;;;4.40;;
21769;SDS011;11046;49.558;8.674;2023-07-30T07:47:46;6.10;;;4.13;;
21769;SDS011;11046;49.558;8.674;2023-07-30T07:50:46;5.85;;;4.45;;
21769;SDS011;11046;49.558;8.674;2023-07-30T07:53:47;5.28;;;4.15;;
21769;SDS011;11046;49.558;8.674;2023-07-30T07:56:47;6.18;;;4.18;;
21769;SDS011;11046;49.558;8.674;2023-07-30T07:59:48;4.82;;;4.30;;
21769;SDS011;11046;49.558;8.674;2023-07-30T08:02:48;5.60;;;4.22;;
21769;SDS011;11046;49.558;8.674;2023-07-30T08:05:49;4.97;;;3.83;;
21769;SDS011;11046;49.558;8.674;2023-07-30T08:08:50;5.22;;;4.10;;
21769;SDS011;11046;49.558;8.674;2023-07-30T08:11:50;5.38;;;4.05;;
21769;SDS011;11046;49.558;8.674;2023-07-30T08:14:51;6.95;;;4.65;;
21769;SDS011;11046;49.558;8.674;2023-07-30T08:17:51;5.07;;;4.05;;
21769;SDS011;11046;49.558;8.674;2023-07-30T08:20:52;5.90;;;4.70;;
21769;SDS011;11046;49.558;8.674;2023-07-30T08:23:52;8.88;;;3.88;;
21769;SDS011;11046;49.558;8.674;2023-07-30T08:26:53;8.20;;;4.70;;
21769;SDS011;11046;49.558;8.674;2023-07-30T08:29:54;4.68;;;4.05;;
21769;SDS011;11046;49.558;8.674;2023-07-30T08:32:54;4.10;;;3.60;;
21769;SDS011;11046;49.558;8.674;2023-07-30T08:35:55;6.10;;;4.45;;
21769;SDS011;11046;49.558;8.674;2023-07-30T08:38:57;8.60;;;4.13;;
21769;SDS011;11046;49.558;8.674;2023-07-30T08:41:58;4.72;;;4.22;;
21769;SDS011;11046;49.558;8.674;2023-07-30T08:44:59;7.47;;;4.53;;
21769;SDS011;11046;49.558;8.674;2023-07-30T08:47:59;5.80;;;4.95;;
21769;SDS011;11046;49.558;8.674;2023-07-30T08:51:00;6.18;;;4.78;;
21769;SDS011;11046;49.558;8.674;2023-07-30T08:54:01;7.60;;;4.50;;
21769;SDS011;11046;49.558;8.674;2023-07-30T08:57:03;4.30;;;2.65;;
21769;SDS011;11046;49.558;8.674;2023-07-30T09:00:08;4.90;;;2.40;;
21769;SDS011;11046;49.558;8.674;2023-07-30T09:03:10;2.17;;;1.90;;
21769;SDS011;11046;49.558;8.674;2023-07-30T09:06:17;3.67;;;2.42;;
21769;SDS011;11046;49.558;8.674;2023-07-30T09:09:17;2.35;;;1.88;;
21769;SDS011;11046;49.558;8.674;2023-07-30T09:12:18;6.13;;;2.10;;
21769;SDS011;11046;49.558;8.674;2023-07-30T09:15:18;6.40;;;2.10;;
21769;SDS011;11046;49.558;8.674;2023-07-30T09:18:28;3.50;;;2.00;;
21769;SDS011;11046;49.558;8.674;2023-07-30T09:21:41;3.22;;;2.00;;
21769;SDS011;11046;49.558;8.674;2023-07-30T09:24:45;2.15;;;1.85;;
21769;SDS011;11046;49.558;8.674;2023-07-30T09:27:54;3.75;;;2.00;;
21769;SDS011;11046;49.558;8.674;2023-07-30T09:31:03;2.88;;;1.92;;
21769;SDS011;11046;49.558;8.674;2023-07-30T09:34:05;2.30;;;1.92;;
21769;SDS011;11046;49.558;8.674;2023-07-30T09:37:06;4.55;;;2.28;;
21769;SDS011;11046;49.558;8.674;2023-07-30T09:40:10;2.38;;;1.92;;
21769;SDS011;11046;49.558;8.674;2023-07-30T09:43:16;2.13;;;1.83;;
21769;SDS011;11046;49.558;8.674;2023-07-30T09:46:17;5.03;;;1.92;;
21769;SDS011;11046;49.558;8.674;2023-07-30T09:49:19;4.50;;;1.80;;
21769;SDS011;11046;49.558;8.674;2023-07-30T09:52:23;2.67;;;2.10;;
21769;SDS011;11046;49.558;8.674;2023-07-30T09:55:33;3.30;;;1.77;;
21769;SDS011;11046;49.558;8.674;2023-07-30T09:58:34;3.20;;;1.88;;
21769;SDS011;11046;49.558;8.674;2023-07-30T10:01:39;2.58;;;2.00;;
21769;SDS011;11046;49.558;8.674;2023-07-30T10:04:49;3.60;;;1.98;;
21769;SDS011;11046;49.558;8.674;2023-07-30T10:08:05;3.63;;;1.58;;
21769;SDS011;11046;49.558;8.674;2023-07-30T10:11:10;1.88;;;1.50;;
21769;SDS011;11046;49.558;8.674;2023-07-30T10:14:13;7.60;;;1.60;;
21769;SDS011;11046;49.558;8.674;2023-07-30T10:17:16;3.22;;;1.80;;
21769;SDS011;11046;49.558;8.674;2023-07-30T10:20:22;2.08;;;1.60;;
21769;SDS011;11046;49.558;8.674;2023-07-30T10:23:27;2.03;;;1.48;;
21769;SDS011;11046;49.558;8.674;2023-07-30T10:26:32;2.08;;;1.67;;
21769;SDS011;11046;49.558;8.674;2023-07-30T10:29:35;3.15;;;1.70;;
21769;SDS011;11046;49.558;8.674;2023-07-30T10:32:38;1.98;;;1.73;;
21769;SDS011;11046;49.558;8.674;2023-07-30T10:35:57;2.47;;;1.60;;
21769;SDS011;11046;49.558;8.674;2023-07-30T10:42:18;3.13;;;1.30;;
21769;SDS011;11046;49.558;8.674;2023-07-30T10:45:20;1.60;;;1.30;;
21769;SDS011;11046;49.558;8.674;2023-07-30T10:48:29;1.77;;;1.30;;
21769;SDS011;11046;49.558;8.674;2023-07-30T10:51:32;2.13;;;1.15;;
21769;SDS011;11046;49.558;8.674;2023-07-30T10:54:33;1.92;;;0.90;;
21769;SDS011;11046;49.558;8.674;2023-07-30T10:57:34;1.95;;;0.98;;
21769;SDS011;11046;49.558;8.674;2023-07-30T11:00:35;3.33;;;1.23;;
21769;SDS011;11046;49.558;8.674;2023-07-30T11:03:35;3.40;;;0.95;;
21769;SDS011;11046;49.558;8.674;2023-07-30T11:06:38;3.08;;;1.13;;
21769;SDS011;11046;49.558;8.674;2023-07-30T11:09:38;1.10;;;0.90;;
21769;SDS011;11046;49.558;8.674;2023-07-30T11:12:39;1.60;;;0.80;;
21769;SDS011;11046;49.558;8.674;2023-07-30T11:15:43;1.95;;;0.85;;
21769;SDS011;11046;49.558;8.674;2023-07-30T11:18:44;2.55;;;0.88;;
21769;SDS011;11046;49.558;8.674;2023-07-30T11:21:50;2.67;;;0.77;;
21769;SDS011;11046;49.558;8.674;2023-07-30T11:24:53;1.67;;;0.95;;
21769;SDS011;11046;49.558;8.674;2023-07-30T11:27:54;2.15;;;0.95;;
21769;SDS011;11046;49.558;8.674;2023-07-30T11:30:55;1.95;;;0.95;;
21769;SDS011;11046;49.558;8.674;2023-07-30T11:34:09;2.03;;;1.20;;
21769;SDS011;11046;49.558;8.674;2023-07-30T11:37:10;2.78;;;0.88;;
21769;SDS011;11046;49.558;8.674;2023-07-30T11:40:11;2.10;;;1.00;;
21769;SDS011;11046;49.558;8.674;2023-07-30T11:43:12;2.30;;;1.10;;
21769;SDS011;11046;49.558;8.674;2023-07-30T11:46:17;3.72;;;1.02;;
21769;SDS011;11046;49.558;8.674;2023-07-30T11:49:24;2.30;;;1.17;;
21769;SDS011;11046;49.558;8.674;2023-07-30T11:52:25;4.55;;;1.10;;
21769;SDS011;11046;49.558;8.674;2023-07-30T11:55:25;3.28;;;1.10;;
21769;SDS011;11046;49.558;8.674;2023-07-30T11:58:37;4.55;;;1.10;;
21769;SDS011;11046;49.558;8.674;2023-07-30T12:01:39;4.05;;;1.30;;
21769;SDS011;11046;49.558;8.674;2023-07-30T12:04:43;3.42;;;1.35;;
21769;SDS011;11046;49.558;8.674;2023-07-30T12:07:46;2.47;;;1.05;;
21769;SDS011;11046;49.558;8.674;2023-07-30T12:10:47;2.33;;;1.10;;
21769;SDS011;11046;49.558;8.674;2023-07-30T12:13:49;2.58;;;1.25;;
21769;SDS011;11046;49.558;8.674;2023-07-30T12:16:50;3.03;;;1.23;;
21769;SDS011;11046;49.558;8.674;2023-07-30T12:19:51;4.80;;;1.48;;
21769;SDS011;11046;49.558;8.674;2023-07-30T12:22:51;3.45;;;1.27;;
21769;SDS011;11046;49.558;8.674;2023-07-30T12:25:55;6.40;;;1.58;;
21769;SDS011;11046;49.558;8.674;2023-07-30T12:28:55;4.10;;;1.30;;
21769;SDS011;11046;49.558;8.674;2023-07-30T12:31:56;5.05;;;1.35;;
21769;SDS011;11046;49.558;8.674;2023-07-30T12:34:57;3.38;;;1.20;;
21769;SDS011;11046;49.558;8.674;2023-07-30T12:37:58;3.60;;;1.40;;
21769;SDS011;11046;49.558;8.674;2023-07-30T12:40:59;5.60;;;1.60;;
21769;SDS011;11046;49.558;8.674;2023-07-30T12:43:59;5.07;;;1.27;;
21769;SDS011;11046;49.558;8.674;2023-07-30T12:47:00;2.17;;;1.17;;
21769;SDS011;11046;49.558;8.674;2023-07-30T12:50:01;2.60;;;1.55;;
21769;SDS011;11046;49.558;8.674;2023-07-30T12:53:02;4.70;;;1.17;;
21769;SDS011;11046;49.558;8.674;2023-07-30T12:56:05;5.25;;;1.33;;
21769;SDS011;11046;49.558;8.674;2023-07-30T12:59:06;4.15;;;1.40;;
21769;SDS011;11046;49.558;8.674;2023-07-30T13:02:07;3.42;;;1.10;;
21769;SDS011;11046;49.558;8.674;2023-07-30T13:05:07;3.75;;;1.60;;
21769;SDS011;11046;49.558;8.674;2023-07-30T13:08:08;4.13;;;1.60;;
21769;SDS011;11046;49.558;8.674;2023-07-30T13:11:08;4.25;;;1.00;;
21769;SDS011;11046;49.558;8.674;2023-07-30T13:14:09;3.33;;;1.60;;
21769;SDS011;11046;49.558;8.674;2023-07-30T13:17:10;2.65;;;1.40;;
21769;SDS011;11046;49.558;8.674;2023-07-30T13:20:10;3.70;;;1.20;;
21769;SDS011;11046;49.558;8.674;2023-07-30T13:23:11;3.88;;;1.60;;
21769;SDS011;11046;49.558;8.674;2023-07-30T13:26:11;4.07;;;1.40;;
21769;SDS011;11046;49.558;8.674;2023-07-30T13:29:12;3.00;;;1.45;;
21769;SDS011;11046;49.558;8.674;2023-07-30T13:32:13;3.10;;;1.30;;
21769;SDS011;11046;49.558;8.674;2023-07-30T13:35:13;3.75;;;1.30;;
21769;SDS011;11046;49.558;8.674;2023-07-30T13:38:14;4.75;;;1.60;;
21769;SDS011;11046;49.558;8.674;2023-07-30T13:41:14;3.33;;;1.55;;
21769;SDS011;11046;49.558;8.674;2023-07-30T13:44:15;1.77;;;1.17;;
21769;SDS011;11046;49.558;8.674;2023-07-30T13:47:15;3.67;;;1.50;;
21769;SDS011;11046;49.558;8.674;2023-07-30T13:50:16;5.03;;;1.55;;
21769;SDS011;11046;49.558;8.674;2023-07-30T13:53:17;3.85;;;1.25;;
21769;SDS011;11046;49.558;8.674;2023-07-30T13:56:17;4.40;;;1.23;;
21769;SDS011;11046;49.558;8.674;2023-07-30T13:59:18;4.68;;;1.30;;
21769;SDS011;11046;49.558;8.674;2023-07-30T14:02:19;5.68;;;1.65;;
21769;SDS011;11046;49.558;8.674;2023-07-30T14:05:20;3.25;;;1.45;;
21769;SDS011;11046;49.558;8.674;2023-07-30T14:08:20;3.00;;;1.35;;
21769;SDS011;11046;49.558;8.674;2023-07-30T14:11:21;2.80;;;1.10;;
21769;SDS011;11046;49.558;8.674;2023-07-30T14:14:21;3.10;;;1.30;;
21769;SDS011;11046;49.558;8.674;2023-07-30T14:17:23;3.70;;;1.27;;
21769;SDS011;11046;49.558;8.674;2023-07-30T14:20:23;4.15;;;1.30;;
21769;SDS011;11046;49.558;8.674;2023-07-30T14:23:24;6.53;;;1.77;;
21769;SDS011;11046;49.558;8.674;2023-07-30T14:26:24;4.28;;;1.60;;
21769;SDS011;11046;49.558;8.674;2023-07-30T14:29:25;3.40;;;1.42;;
21769;SDS011;11046;49.558;8.674;2023-07-30T14:32:25;4.20;;;1.80;;
21769;SDS011;11046;49.558;8.674;2023-07-30T14:35:26;2.53;;;1.38;;
21769;SDS011;11046;49.558;8.674;2023-07-30T14:38:27;3.58;;;1.60;;
21769;SDS011;11046;49.558;8.674;2023-07-30T14:41:28;3.38;;;1.33;;
21769;SDS011;11046;49.558;8.674;2023-07-30T14:44:28;5.03;;;1.20;;
21769;SDS011;11046;49.558;8.674;2023-07-30T14:47:29;3.22;;;1.10;;
21769;SDS011;11046;49.558;8.674;2023-07-30T14:50:30;4.78;;;1.27;;
21769;SDS011;11046;49.558;8.674;2023-07-30T14:53:30;2.35;;;1.30;;
21769;SDS011;11046;49.558;8.674;2023-07-30T14:56:31;3.85;;;1.48;;
21769;SDS011;11046;49.558;8.674;2023-07-30T14:59:31;6.68;;;1.35;;
21769;SDS011;11046;49.558;8.674;2023-07-30T15:02:32;3.47;;;1.48;;
21769;SDS011;11046;49.558;8.674;2023-07-30T15:05:34;3.35;;;1.30;;
21769;SDS011;11046;49.558;8.674;2023-07-30T15:08:35;3.60;;;1.30;;
21769;SDS011;11046;49.558;8.674;2023-07-30T15:11:37;2.85;;;1.40;;
21769;SDS011;11046;49.558;8.674;2023-07-30T15:14:47;2.38;;;1.00;;
21769;SDS011;11046;49.558;8.674;2023-07-30T15:17:51;4.22;;;1.10;;
21769;SDS011;11046;49.558;8.674;2023-07-30T15:20:52;3.28;;;1.00;;
21769;SDS011;11046;49.558;8.674;2023-07-30T15:23:52;5.82;;;1.48;;
21769;SDS011;11046;49.558;8.674;2023-07-30T15:26:53;5.00;;;1.33;;
21769;SDS011;11046;49.558;8.674;2023-07-30T15:29:53;3.67;;;1.23;;
21769;SDS011;11046;49.558;8.674;2023-07-30T15:32:54;2.80;;;1.25;;
21769;SDS011;11046;49.558;8.674;2023-07-30T15:35:55;2.53;;;1.20;;
21769;SDS011;11046;49.558;8.674;2023-07-30T15:38:55;2.58;;;1.45;;
21769;SDS011;11046;49.558;8.674;2023-07-30T15:41:56;4.38;;;1.10;;
21769;SDS011;11046;49.558;8.674;2023-07-30T15:44:57;2.53;;;1.15;;
21769;SDS011;11046;49.558;8.674;2023-07-30T15:47:58;4.15;;;1.23;;
21769;SDS011;11046;49.558;8.674;2023-07-30T15:51:02;4.90;;;1.17;;
21769;SDS011;11046;49.558;8.674;2023-07-30T15:54:03;3.47;;;1.10;;
21769;SDS011;11046;49.558;8.674;2023-07-30T15:57:04;6.13;;;1.20;;
21769;SDS011;11046;49.558;8.674;2023-07-30T16:00:10;4.30;;;1.30;;
21769;SDS011;11046;49.558;8.674;2023-07-30T16:03:12;4.65;;;1.30;;
21769;SDS011;11046;49.558;8.674;2023-07-30T16:06:13;3.08;;;1.30;;
21769;SDS011;11046;49.558;8.674;2023-07-30T16:09:13;4.45;;;1.30;;
21769;SDS011;11046;49.558;8.674;2023-07-30T16:12:14;3.97;;;1.48;;
21769;SDS011;11046;49.558;8.674;2023-07-30T16:15:15;4.95;;;1.20;;
21769;SDS011;11046;49.558;8.674;2023-07-30T16:18:15;3.85;;;1.45;;
21769;SDS011;11046;49.558;8.674;2023-07-30T16:21:16;3.38;;;1.27;;
21769;SDS011;11046;49.558;8.674;2023-07-30T16:24:17;4.45;;;1.35;;
21769;SDS011;11046;49.558;8.674;2023-07-30T16:27:18;3.95;;;1.70;;
21769;SDS011;11046;49.558;8.674;2023-07-30T16:30:18;5.50;;;2.35;;
21769;SDS011;11046;49.558;8.674;2023-07-30T16:33:19;3.30;;;1.30;;
21769;SDS011;11046;49.558;8.674;2023-07-30T16:36:20;4.47;;;1.60;;
21769;SDS011;11046;49.558;8.674;2023-07-30T16:39:21;14.13;;;2.25;;
21769;SDS011;11046;49.558;8.674;2023-07-30T16:42:21;5.53;;;1.77;;
21769;SDS011;11046;49.558;8.674;2023-07-30T16:45:22;3.40;;;1.30;;
21769;SDS011;11046;49.558;8.674;2023-07-30T16:48:22;7.07;;;1.75;;
21769;SDS011;11046;49.558;8.674;2023-07-30T16:51:23;6.32;;;1.40;;
21769;SDS011;11046;49.558;8.674;2023-07-30T16:54:24;7.00;;;1.77;;
21769;SDS011;11046;49.558;8.674;2023-07-30T16:57:24;3.20;;;1.25;;
21769;SDS011;11046;49.558;8.674;2023-07-30T17:00:25;6.43;;;1.48;;
21769;SDS011;11046;49.558;8.674;2023-07-30T17:03:25;3.95;;;1.50;;
21769;SDS011;11046;49.558;8.674;2023-07-30T17:06:26;4.20;;;1.77;;
21769;SDS011;11046;49.558;8.674;2023-07-30T17:09:26;4.68;;;1.40;;
21769;SDS011;11046;49.558;8.674;2023-07-30T17:12:27;4.75;;;1.17;;
21769;SDS011;11046;49.558;8.674;2023-07-30T17:15:28;4.25;;;1.90;;
21769;SDS011;11046;49.558;8.674;2023-07-30T17:18:28;6.88;;;1.55;;
21769;SDS011;11046;49.558;8.674;2023-07-30T17:21:29;4.78;;;1.30;;
21769;SDS011;11046;49.558;8.674;2023-07-30T17:24:33;4.70;;;1.60;;
21769;SDS011;11046;49.558;8.674;2023-07-30T17:27:34;5.22;;;1.70;;
21769;SDS011;11046;49.558;8.674;2023-07-30T17:30:35;2.35;;;1.25;;
21769;SDS011;11046;49.558;8.674;2023-07-30T17:33:35;7.97;;;1.55;;
21769;SDS011;11046;49.558;8.674;2023-07-30T17:36:36;5.18;;;1.60;;
21769;SDS011;11046;49.558;8.674;2023-07-30T17:39:36;3.72;;;1.42;;
21769;SDS011;11046;49.558;8.674;2023-07-30T17:42:37;5.25;;;1.40;;
21769;SDS011;11046;49.558;8.674;2023-07-30T17:45:38;7.60;;;1.50;;
21769;SDS011;11046;49.558;8.674;2023-07-30T17:48:39;4.60;;;1.40;;
21769;SDS011;11046;49.558;8.674;2023-07-30T17:51:39;4.93;;;2.13;;
21769;SDS011;11046;49.558;8.674;2023-07-30T17:54:40;3.22;;;1.30;;
21769;SDS011;11046;49.558;8.674;2023-07-30T17:57:40;5.65;;;2.08;;
21769;SDS011;11046;49.558;8.674;2023-07-30T18:00:41;4.20;;;1.42;;
21769;SDS011;11046;49.558;8.674;2023-07-30T18:03:43;7.45;;;1.38;;
21769;SDS011;11046;49.558;8.674;2023-07-30T18:06:43;3.63;;;1.48;;
21769;SDS011;11046;49.558;8.674;2023-07-30T18:09:44;17.60;;;6.47;;
21769;SDS011;11046;49.558;8.674;2023-07-30T18:12:45;3.03;;;1.92;;
21769;SDS011;11046;49.558;8.674;2023-07-30T18:15:45;32.72;;;18.70;;
21769;SDS011;11046;49.558;8.674;2023-07-30T18:18:46;15.48;;;13.93;;